Date,TemperatureHighF,TemperatureAvgF,TemperatureLowF,DewpointHighF,DewpointAvgF,DewpointLowF,HumidityHigh,HumidityAvg,HumidityLow,PressureMaxIn,PressureMinIn,WindSpeedMaxMPH,WindSpeedAvgMPH,GustSpeedMaxMPH,PrecipitationSumIn
2013-7-1,89,73,60,68,61,56,91,69,43,29.81,29.77,0,0,0,0.00
2013-7-2,88,71,63,67,61,58,87,72,48,29.88,29.79,0,0,0,0.00
2013-7-3,89,72,63,67,62,58,87,72,44,29.88,29.72,0,0,0,0.00
2013-7-4,89,74,65,67,62,56,86,67,46,29.75,29.64,0,0,0,0.00
2013-7-5,78,67,58,59,54,50,83,66,47,29.78,29.68,0,0,0,0.00
2013-7-6,79,64,54,59,54,50,88,72,51,29.77,29.69,0,0,0,0.00
2013-7-7,78,66,58,61,56,52,86,72,53,29.82,29.73,0,0,0,0.00
2013-7-8,79,66,59,60,57,54,86,75,52,29.94,29.82,0,0,0,0.00
2013-7-9,85,69,59,64,59,55,90,72,43,29.99,29.88,0,0,0,0.00
2013-7-10,77,65,58,61,57,53,87,76,54,29.95,29.86,0,0,0,0.00
2013-7-11,74,64,58,59,56,53,85,75,59,29.91,29.85,0,0,0,0.00
2013-7-12,75,64,56,61,55,51,86,75,57,29.90,29.85,0,0,0,0.00
2013-7-13,80,65,53,62,56,50,94,74,46,29.93,29.86,0,0,0,0.00
2013-7-14,74,63,55,60,56,51,90,77,59,29.97,29.86,0,0,0,0.00
2013-7-15,72,63,57,59,55,52,86,76,60,29.90,29.79,0,0,0,0.00
2013-7-16,74,64,59,58,54,52,82,71,54,30.00,29.83,0,0,0,0.00
2013-7-17,74,64,58,59,56,53,84,74,59,30.07,30.00,0,0,0,0.00
2013-7-18,80,65,56,62,56,52,85,74,52,30.04,29.91,0,0,0,0.00
2013-7-19,80,65,57,62,57,53,87,75,53,29.93,29.79,0,0,0,0.00
2013-7-20,81,66,58,62,57,54,87,75,50,29.84,29.70,0,0,0,0.00
2013-7-21,78,66,59,62,57,54,88,76,55,29.85,29.74,0,0,0,0.00
2013-7-22,76,66,60,63,59,56,88,79,62,29.92,29.84,0,0,0,0.00
2013-7-23,76,67,61,64,60,57,89,77,60,29.96,29.91,0,0,0,0.00
2013-7-24,82,69,59,64,59,56,90,73,48,29.95,29.86,1,0,3,0.00
2013-7-25,78,66,57,62,58,54,90,76,53,30.00,29.90,2,0,4,0.00
2013-7-26,76,66,60,62,58,56,88,78,58,30.06,29.97,2,0,3,0.00
2013-7-27,76,66,60,63,58,56,88,77,59,30.01,29.82,1,0,3,0.00
2013-7-28,75,66,59,61,57,55,87,75,58,29.85,29.77,1,0,4,0.00
2013-7-29,76,64,53,60,55,49,90,75,56,29.97,29.81,1,0,4,0.00
2013-7-30,75,64,54,60,56,51,89,76,59,30.06,29.97,1,0,4,0.00
2013-7-31,76,65,57,61,55,50,86,71,51,30.05,29.98,2,0,4,0.00